Time;durP1;ratioP1;P1;durP2;ratioP2;P2;SDS_P1;SDS_P2;PMS_P1;PMS_P2;Temp;Humidity;BMP_temperature;BMP_pressure;BME280_temperature;BME280_humidity;BME280_pressure;Samples;Min_cycle;Max_cycle;Signal;HPM_P1;HPM_P2
2022/07/01 00:02:16;;;;;;;6.53;2.03;;;;;;;14.58;100.00;96262.91;5068399;28;20115;-82
2022/07/01 00:04:42;;;;;;;4.70;2.00;;;;;;;14.58;100.00;96265.56;5050104;28;20123;-82
2022/07/01 00:07:26;;;;;;;4.53;2.17;;;;;;;14.54;100.00;96248.41;5064366;28;20470;-83
2022/07/01 00:09:52;;;;;;;3.77;2.03;;;;;;;14.48;100.00;96243.00;5067326;28;20032;-83
2022/07/01 00:12:18;;;;;;;2.93;2.10;;;;;;;14.37;100.00;96229.22;5093055;28;20036;-83
2022/07/01 00:14:44;;;;;;;3.83;2.33;;;;;;;14.45;100.00;96238.06;5070900;28;20163;-82
2022/07/01 00:17:10;;;;;;;6.70;2.07;;;;;;;14.32;100.00;96228.16;5071184;28;20120;-81
2022/07/01 00:19:35;;;;;;;6.53;2.57;;;;;;;14.10;100.00;96227.22;5066456;28;20033;-82
2022/07/01 00:22:01;;;;;;;5.23;2.37;;;;;;;14.18;100.00;96224.47;5053407;28;20027;-82
2022/07/01 00:24:27;;;;;;;5.23;2.10;;;;;;;14.18;100.00;96226.31;5065869;28;20372;-82
2022/07/01 00:26:53;;;;;;;5.77;2.50;;;;;;;14.23;100.00;96230.06;5054244;28;20047;-79
2022/07/01 00:29:19;;;;;;;8.33;2.40;;;;;;;14.09;100.00;96217.66;5073194;28;20029;-81
2022/07/01 00:31:45;;;;;;;6.50;2.13;;;;;;;13.90;100.00;96197.84;5069640;28;20045;-82
2022/07/01 00:34:10;;;;;;;3.37;2.00;;;;;;;13.89;100.00;96185.63;5057417;28;20036;-81
2022/07/01 00:36:36;;;;;;;6.77;2.30;;;;;;;13.77;100.00;96172.03;5052463;28;20028;-81
2022/07/01 00:39:02;;;;;;;3.73;2.03;;;;;;;13.67;100.00;96150.34;5066960;28;20366;-81
2022/07/01 00:41:28;;;;;;;3.17;1.73;;;;;;;13.70;100.00;96128.00;5071387;28;20498;-81
2022/07/01 00:43:54;;;;;;;5.63;2.13;;;;;;;13.70;100.00;96147.34;5063759;28;20028;-81
2022/07/01 00:46:20;;;;;;;8.47;2.47;;;;;;;13.56;100.00;96134.94;5063766;28;20488;-81
2022/07/01 00:48:46;;;;;;;3.93;1.77;;;;;;;13.49;100.00;96131.38;5054113;28;20027;-81
2022/07/01 00:51:13;;;;;;;3.97;1.60;;;;;;;13.42;100.00;96142.66;5051606;28;20028;-81
2022/07/01 00:53:40;;;;;;;3.07;1.43;;;;;;;13.44;100.00;96148.56;5070313;28;20071;-80
2022/07/01 00:56:06;;;;;;;11.87;2.83;;;;;;;13.43;100.00;96139.00;5063114;28;20025;-81
2022/07/01 00:58:32;;;;;;;4.33;1.37;;;;;;;13.44;100.00;96151.19;5058606;28;20098;-80
2022/07/01 01:00:58;;;;;;;3.67;1.73;;;;;;;13.44;100.00;96156.47;5074571;28;20032;-81
2022/07/01 01:03:25;;;;;;;3.87;1.90;;;;;;;13.50;100.00;96159.41;5077118;28;20074;-81
2022/07/01 01:05:52;;;;;;;3.83;1.20;;;;;;;13.40;100.00;96159.66;5065634;28;20040;-80
2022/07/01 01:08:19;;;;;;;2.40;1.30;;;;;;;13.37;100.00;96150.28;5069151;28;20136;-81
2022/07/01 01:10:45;;;;;;;2.30;1.47;;;;;;;13.34;100.00;96158.56;5067490;28;20064;-81
2022/07/01 01:13:12;;;;;;;2.47;1.40;;;;;;;13.39;100.00;96168.59;5066595;28;20423;-81
2022/07/01 01:15:38;;;;;;;2.17;1.23;;;;;;;13.37;100.00;96171.41;5051660;28;20044;-81
2022/07/01 01:18:03;;;;;;;2.60;1.47;;;;;;;13.24;100.00;96157.97;5067675;28;20036;-81
2022/07/01 01:20:34;;;;;;;2.97;1.10;;;;;;;13.27;100.00;96170.00;5069568;28;20056;-81
2022/07/01 01:23:01;;;;;;;2.37;1.30;;;;;;;13.29;100.00;96176.75;5057081;28;20032;-81
2022/07/01 01:25:27;;;;;;;2.07;1.00;;;;;;;13.39;100.00;96190.56;5066744;28;20020;-81
2022/07/01 01:27:53;;;;;;;1.63;0.83;;;;;;;13.21;100.00;96197.91;5048087;28;20116;-82
2022/07/01 01:30:18;;;;;;;2.03;1.03;;;;;;;13.26;100.00;96192.16;5047501;28;20724;-81
2022/07/01 01:32:44;;;;;;;3.30;1.10;;;;;;;13.32;100.00;96188.81;5041292;28;20040;-82
2022/07/01 01:35:10;;;;;;;3.73;1.10;;;;;;;13.45;100.00;96194.31;5054685;28;20032;-81
2022/07/01 01:37:36;;;;;;;1.07;0.83;;;;;;;13.32;100.00;96199.38;5060922;28;20119;-81
2022/07/01 01:40:03;;;;;;;2.80;1.10;;;;;;;13.44;100.00;96198.75;5070361;28;20136;-82
2022/07/01 01:42:30;;;;;;;1.97;1.10;;;;;;;13.39;100.00;96195.00;5066267;28;20092;-82
2022/07/01 01:44:56;;;;;;;2.43;1.30;;;;;;;13.58;100.00;96191.03;5067531;28;20210;-81
2022/07/01 01:47:22;;;;;;;2.13;1.17;;;;;;;13.54;100.00;96182.66;5081025;28;20086;-81
2022/07/01 01:49:48;;;;;;;1.87;1.20;;;;;;;13.66;100.00;96190.97;5054239;28;20032;-81
2022/07/01 01:52:14;;;;;;;1.53;1.20;;;;;;;13.70;100.00;96192.25;5054408;28;20032;-81
2022/07/01 01:54:39;;;;;;;1.20;0.80;;;;;;;13.63;100.00;96193.97;5069915;28;20067;-82
2022/07/01 01:57:05;;;;;;;2.20;1.00;;;;;;;13.70;100.00;96192.25;5066744;28;20040;-82
2022/07/01 01:59:31;;;;;;;2.53;1.30;;;;;;;13.70;100.00;96179.03;5069289;28;20120;-82
2022/07/01 02:01:57;;;;;;;3.13;1.00;;;;;;;13.77;100.00;96192.38;5049240;28;20028;-81
2022/07/01 02:04:23;;;;;;;3.07;1.00;;;;;;;13.82;100.00;96185.53;5049559;28;20506;-81
2022/07/01 02:06:51;;;;;;;4.00;1.10;;;;;;;13.81;100.00;96194.44;5072206;28;20028;-81
2022/07/01 02:09:17;;;;;;;2.43;1.10;;;;;;;13.71;100.00;96193.88;5069760;28;20029;-81
2022/07/01 02:11:42;;;;;;;1.60;1.00;;;;;;;13.68;100.00;96188.97;5054867;28;20043;-81
2022/07/01 02:14:08;;;;;;;3.63;1.00;;;;;;;13.58;100.00;96188.41;5069649;28;20419;-81
2022/07/01 02:16:34;;;;;;;2.80;1.40;;;;;;;13.62;100.00;96185.25;5066799;28;20083;-80
2022/07/01 02:19:00;;;;;;;2.33;1.03;;;;;;;13.56;100.00;96190.41;5065642;28;20040;-81
2022/07/01 02:21:26;;;;;;;3.47;1.60;;;;;;;13.55;100.00;96196.72;5067112;28;20036;-81
2022/07/01 02:23:54;;;;;;;3.17;1.20;;;;;;;13.52;100.00;96200.53;5072889;28;20767;-82
2022/07/01 02:26:20;;;;;;;2.60;1.13;;;;;;;13.36;100.00;96201.47;5068727;28;20086;-81
2022/07/01 02:28:46;;;;;;;2.83;1.00;;;;;;;13.46;100.00;96195.13;5073746;28;20033;-81
2022/07/01 02:31:12;;;;;;;1.23;0.90;;;;;;;13.26;100.00;96190.31;5063799;28;20043;-81
2022/07/01 02:33:38;;;;;;;1.50;0.70;;;;;;;13.33;100.00;96196.53;5077211;28;20074;-80
2022/07/01 02:36:04;;;;;;;2.40;1.53;;;;;;;13.23;100.00;96201.22;5078950;28;20056;-81
2022/07/01 02:38:29;;;;;;;1.20;0.63;;;;;;;13.08;100.00;96200.34;5071340;28;20729;-81
2022/07/01 02:40:55;;;;;;;0.73;0.70;;;;;;;12.96;100.00;96207.81;5076176;28;20043;-82
2022/07/01 02:43:21;;;;;;;1.13;0.80;;;;;;;13.12;100.00;96230.66;5062278;28;20131;-81
2022/07/01 02:45:47;;;;;;;1.30;0.70;;;;;;;13.11;100.00;96226.38;5072216;28;20038;-82
2022/07/01 02:48:12;;;;;;;1.40;0.67;;;;;;;12.82;100.00;96225.22;5073678;28;20040;-82
2022/07/01 02:50:38;;;;;;;1.57;0.87;;;;;;;12.91;100.00;96234.75;5079230;28;20144;-82
2022/07/01 02:53:04;;;;;;;1.70;0.97;;;;;;;12.93;100.00;96247.75;5074971;28;20057;-81
2022/07/01 02:55:29;;;;;;;2.17;0.93;;;;;;;12.87;100.00;96251.91;5073957;28;20041;-81
2022/07/01 02:57:56;;;;;;;2.57;0.90;;;;;;;12.84;100.00;96249.63;5073106;28;20048;-82
2022/07/01 03:00:23;;;;;;;3.30;1.10;;;;;;;12.87;100.00;96244.00;5065671;28;20651;-81
2022/07/01 03:02:49;;;;;;;1.47;1.00;;;;;;;12.72;100.00;96240.47;5051946;28;20488;-82
2022/07/01 03:05:15;;;;;;;2.47;1.07;;;;;;;12.79;100.00;96236.13;5071863;28;20089;-81
2022/07/01 03:07:42;;;;;;;1.33;1.07;;;;;;;12.63;100.00;96236.19;5073196;28;20111;-81
2022/07/01 03:10:08;;;;;;;2.57;1.30;;;;;;;12.85;100.00;96250.47;5069201;28;20036;-81
2022/07/01 03:12:35;;;;;;;2.33;1.03;;;;;;;12.83;100.00;96241.88;5068378;28;20031;-81
2022/07/01 03:15:03;;;;;;;3.40;1.23;;;;;;;12.91;100.00;96253.22;5054970;28;20036;-82
2022/07/01 03:17:31;;;;;;;2.33;1.20;;;;;;;12.89;100.00;96246.47;5071530;28;20029;-82
2022/07/01 03:19:58;;;;;;;2.80;1.07;;;;;;;13.03;100.00;96252.81;5059194;28;20097;-82
2022/07/01 03:22:26;;;;;;;1.73;1.10;;;;;;;12.87;100.00;96257.19;5067295;28;20031;-82
2022/07/01 03:24:53;;;;;;;2.23;1.10;;;;;;;12.96;100.00;96261.44;5079259;28;20032;-81
2022/07/01 03:27:20;;;;;;;3.57;0.87;;;;;;;12.94;100.00;96266.09;5068818;28;20036;-81
2022/07/01 03:29:46;;;;;;;2.70;1.20;;;;;;;12.92;100.00;96268.06;5069943;28;20094;-82
2022/07/01 03:32:12;;;;;;;2.30;1.30;;;;;;;13.03;100.00;96273.94;5056460;28;20040;-82
2022/07/01 03:34:42;;;;;;;2.97;1.00;;;;;;;12.87;100.00;96267.75;5070303;28;20039;-82
2022/07/01 03:37:09;;;;;;;2.37;1.10;;;;;;;12.88;100.00;96266.78;5070234;28;20032;-81
2022/07/01 03:39:36;;;;;;;3.30;1.30;;;;;;;12.83;100.00;96265.63;5076289;28;20063;-81
2022/07/01 03:42:04;;;;;;;3.40;1.13;;;;;;;12.93;100.00;96269.69;5057639;28;20036;-81
2022/07/01 03:44:29;;;;;;;3.73;1.30;;;;;;;12.89;100.00;96270.22;5085090;28;20037;-81
2022/07/01 03:46:55;;;;;;;1.30;1.00;;;;;;;12.86;100.00;96268.75;5069950;28;20028;-82
2022/07/01 03:49:22;;;;;;;1.47;1.00;;;;;;;12.88;100.00;96271.22;5061836;28;20056;-81
2022/07/01 03:51:48;;;;;;;2.10;1.20;;;;;;;12.81;100.00;96280.81;5067670;28;20032;-82
2022/07/01 03:54:29;;;;;;;2.80;1.07;;;;;;;12.75;100.00;96284.97;5081951;28;20414;-81
2022/07/01 03:57:03;;;;;;;1.63;1.20;;;;;;;12.76;100.00;96301.63;5050969;28;20757;-81
2022/07/01 03:59:32;;;;;;;1.70;1.00;;;;;;;12.85;100.00;96309.34;5071435;28;20098;-82
2022/07/01 04:01:59;;;;;;;2.37;0.93;;;;;;;12.70;100.00;96311.84;5072398;28;20028;-81
2022/07/01 04:04:26;;;;;;;2.57;1.00;;;;;;;12.86;100.00;96316.25;5059017;28;20043;-82
2022/07/01 04:06:53;;;;;;;1.40;1.00;;;;;;;12.66;100.00;96331.66;5075164;28;20485;-82
2022/07/01 04:09:20;;;;;;;3.43;1.33;;;;;;;12.65;100.00;96343.22;5070632;28;20025;-82
2022/07/01 04:11:48;;;;;;;3.40;1.30;;;;;;;12.61;100.00;96344.56;5053523;28;20028;-82
2022/07/01 04:14:14;;;;;;;4.23;1.20;;;;;;;12.54;100.00;96351.50;5076095;28;20090;-82
2022/07/01 04:16:41;;;;;;;3.07;1.30;;;;;;;12.63;100.00;96357.56;5069438;28;20063;-82
2022/07/01 04:19:08;;;;;;;1.47;1.10;;;;;;;12.60;100.00;96363.19;5092720;28;20104;-81
2022/07/01 04:24:18;;;;;;;2.43;1.50;;;;;;;12.70;100.00;96350.63;5074356;28;20036;-80
2022/07/01 04:26:44;;;;;;;4.23;1.40;;;;;;;12.63;100.00;96358.38;5075020;28;20093;-80
2022/07/01 04:29:10;;;;;;;2.80;1.40;;;;;;;12.71;100.00;96362.84;5069984;28;20032;-81
2022/07/01 04:31:37;;;;;;;3.30;1.50;;;;;;;12.56;100.00;96354.78;5078625;28;20066;-79
2022/07/01 04:34:04;;;;;;;2.70;1.33;;;;;;;12.59;100.00;96366.81;5071317;28;20033;-81
2022/07/01 04:36:30;;;;;;;2.23;1.33;;;;;;;12.73;100.00;96364.28;5054541;28;20063;-81
2022/07/01 04:38:56;;;;;;;1.70;1.20;;;;;;;12.81;100.00;96360.81;5050308;28;20545;-81
2022/07/01 04:44:07;;;;;;;3.57;1.00;;;;;;;12.81;100.00;96370.53;5071186;28;20106;-80
2022/07/01 04:46:32;;;;;;;1.93;1.20;;;;;;;12.76;100.00;96372.88;5072907;28;20584;-81
2022/07/01 04:48:58;;;;;;;3.17;1.50;;;;;;;12.66;100.00;96344.03;5058534;28;20061;-81
2022/07/01 04:51:24;;;;;;;1.67;1.10;;;;;;;12.67;100.00;96343.84;5054174;28;20036;-80
2022/07/01 04:53:50;;;;;;;1.33;1.00;;;;;;;12.62;100.00;96346.19;5057151;28;20054;-81
2022/07/01 04:56:16;;;;;;;1.97;0.93;;;;;;;12.62;100.00;96350.66;5069040;28;20033;-81
2022/07/01 04:58:42;;;;;;;1.77;1.10;;;;;;;12.80;100.00;96372.34;5068522;28;20043;-80
2022/07/01 05:01:08;;;;;;;2.50;1.20;;;;;;;12.58;100.00;96375.72;5070115;28;20048;-80
2022/07/01 05:03:34;;;;;;;1.90;0.97;;;;;;;12.50;100.00;96376.56;5056463;28;20239;-80
2022/07/01 05:06:00;;;;;;;4.10;1.07;;;;;;;12.61;100.00;96394.69;5053258;28;20064;-81
2022/07/01 05:08:26;;;;;;;1.67;0.90;;;;;;;12.62;100.00;96395.50;5068116;28;20587;-81
2022/07/01 05:10:52;;;;;;;4.57;1.50;;;;;;;12.81;100.00;96399.56;5076075;28;20040;-80
2022/07/01 05:13:18;;;;;;;3.03;1.67;;;;;;;12.67;100.00;96406.34;5074595;28;20034;-81
2022/07/01 05:15:43;;;;;;;2.93;2.07;;;;;;;12.82;100.00;96403.88;5058338;28;20560;-81
2022/07/01 05:23:37;;;;;;;3.33;2.13;;;;;;;13.09;100.00;96386.78;5073833;28;20141;-80
2022/07/01 05:26:04;;;;;;;2.73;1.90;;;;;;;13.20;100.00;96392.50;5063141;28;20033;-80
2022/07/01 05:28:30;;;;;;;2.77;1.80;;;;;;;13.16;100.00;96393.03;5061370;28;20037;-80
2022/07/01 05:30:55;;;;;;;3.60;2.10;;;;;;;13.37;100.00;96388.00;5069170;28;20035;-80
2022/07/01 05:33:26;;;;;;;3.10;2.20;;;;;;;13.55;100.00;96384.31;5071189;28;20037;-80
2022/07/01 05:35:54;;;;;;;3.77;1.87;;;;;;;13.31;100.00;96388.72;5082543;28;20432;-80
2022/07/01 05:38:21;;;;;;;2.90;2.07;;;;;;;13.53;100.00;96386.28;5063255;28;20716;-79
2022/07/01 05:40:46;;;;;;;2.97;2.07;;;;;;;13.41;100.00;96376.13;5070264;28;20036;-80
2022/07/01 05:43:12;;;;;;;4.37;2.23;;;;;;;13.50;100.00;96390.09;5073547;28;20036;-80
2022/07/01 05:45:38;;;;;;;3.80;1.90;;;;;;;13.40;100.00;96403.50;5076210;28;20043;-80
2022/07/01 05:48:04;;;;;;;3.97;2.20;;;;;;;13.35;100.00;96402.41;5073193;28;20040;-80
2022/07/01 05:50:30;;;;;;;3.90;2.33;;;;;;;13.38;100.00;96396.75;5077056;28;20020;-80
2022/07/01 05:52:55;;;;;;;3.50;2.20;;;;;;;13.20;100.00;96402.25;5075583;28;20423;-81
2022/07/01 05:55:21;;;;;;;4.00;2.50;;;;;;;13.28;100.00;96399.63;5066982;28;20043;-80
2022/07/01 05:57:47;;;;;;;4.77;2.73;;;;;;;13.58;100.00;96408.56;5074840;28;20024;-80
2022/07/01 06:00:13;;;;;;;6.00;4.33;;;;;;;13.44;100.00;96394.22;5093380;28;20469;-80
2022/07/01 06:02:39;;;;;;;4.03;3.00;;;;;;;13.37;100.00;96403.03;5074145;28;20103;-81
2022/07/01 06:05:06;;;;;;;5.00;3.27;;;;;;;13.32;100.00;96408.84;5058846;28;20059;-80
2022/07/01 06:07:31;;;;;;;4.07;2.40;;;;;;;13.47;100.00;96416.03;5074272;28;20028;-81
2022/07/01 06:09:57;;;;;;;3.53;2.47;;;;;;;13.54;100.00;96416.97;5074219;28;20038;-80
2022/07/01 06:12:23;;;;;;;4.53;2.70;;;;;;;13.38;100.00;96412.59;5089060;28;20028;-80
2022/07/01 06:14:49;;;;;;;3.77;2.33;;;;;;;13.56;100.00;96407.06;5079195;28;20031;-80
2022/07/01 06:17:16;;;;;;;4.93;2.40;;;;;;;13.26;100.00;96412.16;5080287;28;20028;-81
2022/07/01 06:19:42;;;;;;;3.80;2.57;;;;;;;13.30;100.00;96415.28;5078863;28;20021;-80
2022/07/01 06:22:08;;;;;;;5.13;2.60;;;;;;;13.31;100.00;96417.78;5076007;28;20392;-80
2022/07/01 06:24:34;;;;;;;3.67;2.27;;;;;;;13.28;100.00;96412.81;5079428;28;20032;-81
2022/07/01 06:44:31;;;;;;;4.70;2.67;;;;;;;13.22;100.00;96424.03;5579874;22;17114719;-78
2022/07/01 06:47:23;;;;;;;5.93;3.13;;;;;;;13.05;100.00;96435.66;6319755;22;20022;-79
2022/07/01 06:49:49;;;;;;;4.07;2.60;;;;;;;13.10;100.00;96438.59;6321562;22;20023;-79
2022/07/01 06:52:14;;;;;;;4.80;2.67;;;;;;;12.84;100.00;96434.34;6295974;22;20227;-79
2022/07/01 06:54:40;;;;;;;4.77;3.03;;;;;;;12.91;100.00;96445.91;6321302;22;20014;-78
2022/07/01 06:57:06;;;;;;;5.13;3.00;;;;;;;13.02;100.00;96439.44;6295333;22;20011;-79
2022/07/01 06:59:33;;;;;;;7.07;3.23;;;;;;;12.96;100.00;96440.94;6295652;22;19994;-79
2022/07/01 07:01:58;;;;;;;4.80;3.07;;;;;;;12.91;100.00;96439.78;6294539;22;20007;-79
2022/07/01 07:04:24;;;;;;;4.63;2.93;;;;;;;12.83;100.00;96442.47;6323308;22;20065;-79
2022/07/01 07:06:50;;;;;;;5.30;3.57;;;;;;;12.78;100.00;96445.63;6323759;22;20011;-79
2022/07/01 07:09:17;;;;;;;5.27;3.03;;;;;;;12.83;100.00;96445.09;6324269;22;20011;-79
2022/07/01 07:11:42;;;;;;;6.07;3.80;;;;;;;12.95;100.00;96443.75;6297814;22;20021;-79
2022/07/01 07:14:08;;;;;;;11.27;9.33;;;;;;;12.91;100.00;96434.50;6318899;22;20015;-79
2022/07/01 07:16:34;;;;;;;8.27;5.40;;;;;;;12.98;100.00;96446.88;6306538;22;20055;-79
2022/07/01 07:19:00;;;;;;;6.60;4.57;;;;;;;12.95;100.00;96447.22;6278445;22;20010;-79
2022/07/01 07:21:26;;;;;;;6.30;4.27;;;;;;;13.00;100.00;96459.09;6305233;22;20102;-78
2022/07/01 07:23:52;;;;;;;6.37;4.17;;;;;;;12.95;100.00;96470.16;6292443;22;20003;-79
2022/07/01 07:26:17;;;;;;;4.93;3.40;;;;;;;12.82;100.00;96468.03;6318963;22;20003;-80
2022/07/01 07:28:43;;;;;;;5.13;3.30;;;;;;;12.74;100.00;96470.66;6319842;22;20003;-79
2022/07/01 07:31:09;;;;;;;5.13;3.70;;;;;;;12.73;100.00;96483.03;6320181;22;20038;-79
2022/07/01 07:33:35;;;;;;;5.27;3.70;;;;;;;12.94;100.00;96492.25;6295398;22;20424;-79
2022/07/01 07:36:00;;;;;;;5.37;3.97;;;;;;;12.95;100.00;96502.66;6294823;22;20523;-77
2022/07/01 07:38:26;;;;;;;4.93;3.00;;;;;;;12.74;100.00;96505.81;6321573;22;20041;-80
2022/07/01 07:40:52;;;;;;;5.33;3.13;;;;;;;12.65;100.00;96500.72;6295547;22;20014;-79
2022/07/01 07:43:18;;;;;;;4.97;3.20;;;;;;;12.67;100.00;96488.97;6316924;22;20036;-79
2022/07/01 07:45:44;;;;;;;5.80;3.67;;;;;;;12.90;100.00;96486.47;6288118;22;20019;-79
2022/07/01 07:48:09;;;;;;;5.17;3.30;;;;;;;12.68;100.00;96503.03;6314121;22;20015;-78
2022/07/01 07:50:35;;;;;;;10.60;3.60;;;;;;;12.84;100.00;96513.53;6282968;22;20007;-79
2022/07/01 07:53:02;;;;;;;6.83;3.53;;;;;;;12.89;100.00;96531.53;6287752;22;20481;-79
2022/07/01 07:55:28;;;;;;;12.23;3.93;;;;;;;12.95;100.00;96526.41;6311823;22;20413;-80
2022/07/01 07:57:54;;;;;;;7.70;3.70;;;;;;;12.84;100.00;96526.75;6287257;22;20011;-78
2022/07/01 08:00:20;;;;;;;6.20;3.30;;;;;;;12.96;100.00;96508.75;6286190;22;20011;-78
2022/07/01 08:02:46;;;;;;;7.70;3.60;;;;;;;13.25;100.00;96508.25;6312501;22;20014;-78
2022/07/01 08:05:11;;;;;;;8.30;3.73;;;;;;;13.21;100.00;96514.81;6286705;22;20015;-79
2022/07/01 08:07:41;;;;;;;4.13;2.80;;;;;;;13.03;100.00;96522.13;6286654;22;20015;-79
2022/07/01 08:10:10;;;;;;;4.43;2.90;;;;;;;13.19;100.00;96517.63;6311691;22;20015;-79
2022/07/01 08:12:36;;;;;;;5.07;3.43;;;;;;;13.18;100.00;96518.63;6311717;22;20007;-79
2022/07/01 08:15:03;;;;;;;4.73;2.70;;;;;;;13.30;100.00;96524.41;6284099;22;20023;-79
2022/07/01 08:17:29;;;;;;;5.03;2.30;;;;;;;13.33;100.00;96523.25;6285027;22;20472;-79
2022/07/01 08:19:55;;;;;;;4.93;2.37;;;;;;;13.43;100.00;96523.88;6285927;22;20007;-79
2022/07/01 08:22:21;;;;;;;3.53;2.03;;;;;;;13.17;100.00;96535.44;6310148;22;20022;-78
2022/07/01 08:24:48;;;;;;;4.77;2.50;;;;;;;13.24;100.00;96532.97;6285702;22;20015;-78
2022/07/01 08:27:14;;;;;;;3.13;2.10;;;;;;;13.20;100.00;96540.38;6310533;22;20003;-79
2022/07/01 08:29:39;;;;;;;2.77;1.80;;;;;;;13.39;100.00;96527.84;6284832;22;20026;-79
2022/07/01 08:32:06;;;;;;;3.37;2.17;;;;;;;13.28;100.00;96529.03;6310836;22;20003;-79
2022/07/01 08:34:33;;;;;;;3.03;2.13;;;;;;;13.18;100.00;96536.28;6312359;22;20018;-80
2022/07/01 08:36:59;;;;;;;4.37;2.23;;;;;;;13.15;100.00;96528.69;6312690;22;20018;-79
2022/07/01 08:39:26;;;;;;;4.13;2.10;;;;;;;13.18;100.00;96531.00;6286937;22;20003;-80
2022/07/01 08:41:52;;;;;;;4.07;2.40;;;;;;;13.22;100.00;96527.03;6288356;22;20029;-80
2022/07/01 08:44:17;;;;;;;6.33;4.67;;;;;;;13.20;100.00;96526.38;6289765;22;20045;-79
2022/07/01 08:46:43;;;;;;;8.57;5.53;;;;;;;13.16;100.00;96527.69;6289627;22;20041;-79
2022/07/01 08:49:09;;;;;;;4.10;2.80;;;;;;;13.27;100.00;96516.81;6315170;22;20007;-80
2022/07/01 08:51:35;;;;;;;5.10;3.10;;;;;;;13.24;100.00;96529.50;6343897;22;20002;-79
2022/07/01 08:54:00;;;;;;;4.63;3.10;;;;;;;13.07;100.00;96539.25;6289877;22;20075;-80
2022/07/01 08:56:41;;;;;;;5.43;3.10;;;;;;;13.14;100.00;96546.34;6291093;22;20022;-79
2022/07/01 08:59:12;;;;;;;5.20;3.40;;;;;;;13.16;100.00;96562.03;6315938;22;20049;-79
2022/07/01 09:01:39;;;;;;;4.97;2.80;;;;;;;13.07;100.00;96549.81;6312111;22;20029;-77
2022/07/01 09:04:19;;;;;;;4.73;2.77;;;;;;;13.17;100.00;96539.91;6286443;22;20021;-77
2022/07/01 09:06:46;;;;;;;5.83;2.87;;;;;;;13.30;100.00;96534.13;6289711;22;20011;-78
2022/07/01 09:09:14;;;;;;;4.77;2.90;;;;;;;13.27;100.00;96527.38;6288133;22;20015;-77
2022/07/01 09:11:54;;;;;;;4.80;3.07;;;;;;;13.25;100.00;96539.94;6315395;22;20041;-77
2022/07/01 09:14:21;;;;;;;5.63;3.13;;;;;;;13.18;100.00;96552.13;6344519;22;20090;-80
2022/07/01 09:16:55;;;;;;;5.67;3.10;;;;;;;13.40;100.00;96553.25;6314145;22;20011;-78
2022/07/01 09:19:22;;;;;;;4.23;2.70;;;;;;;13.21;100.00;96539.41;6315834;22;20003;-77
2022/07/01 09:22:00;;;;;;;9.70;4.87;;;;;;;13.49;100.00;96541.69;6286929;22;20883;-81
2022/07/01 09:24:33;;;;;;;5.03;3.43;;;;;;;13.45;100.00;96543.03;6313983;22;20486;-77
2022/07/01 09:27:13;;;;;;;4.53;3.10;;;;;;;13.54;100.00;96539.34;6289189;22;20078;-77
2022/07/01 09:29:42;;;;;;;4.77;2.67;;;;;;;13.52;100.00;96540.53;6326670;22;20007;-78
2022/07/01 09:32:11;;;;;;;4.67;2.97;;;;;;;13.39;100.00;96544.53;6297927;22;20006;-77
2022/07/01 09:34:47;;;;;;;5.43;3.27;;;;;;;13.35;100.00;96543.22;6292702;22;20088;-78
2022/07/01 09:37:14;;;;;;;5.37;3.37;;;;;;;13.44;100.00;96550.09;6291770;22;20018;-77
2022/07/01 09:39:47;;;;;;;4.43;3.33;;;;;;;13.60;100.00;96556.34;6317876;22;20006;-78
2022/07/01 09:42:17;;;;;;;4.03;2.65;;;;;;;13.53;100.00;96544.81;6290967;22;20022;-77
2022/07/01 09:45:03;;;;;;;5.33;3.43;;;;;;;13.52;100.00;96557.22;6289611;22;20030;-77
2022/07/01 09:47:30;;;;;;;8.77;5.73;;;;;;;13.44;100.00;96568.59;6344018;22;20011;-78
2022/07/01 09:49:56;;;;;;;5.27;3.27;;;;;;;13.58;100.00;96580.31;6290367;22;20087;-77
2022/07/01 09:52:23;;;;;;;4.33;2.83;;;;;;;13.36;100.00;96581.00;6316564;22;20356;-77
2022/07/01 09:54:50;;;;;;;5.57;3.10;;;;;;;13.42;100.00;96588.28;6288826;22;20342;-77
2022/07/01 09:57:17;;;;;;;7.93;3.90;;;;;;;13.29;100.00;96587.97;6312953;22;20019;-78
2022/07/01 09:59:44;;;;;;;5.63;3.77;;;;;;;13.52;100.00;96588.09;6289573;22;20040;-78
2022/07/01 10:02:11;;;;;;;9.27;6.80;;;;;;;13.43;100.00;96579.34;6316974;22;20038;-77
2022/07/01 10:04:39;;;;;;;6.27;3.60;;;;;;;13.48;100.00;96590.25;6292800;22;20006;-78
2022/07/01 10:07:36;;;;;;;6.03;3.67;;;;;;;13.78;100.00;96586.03;6274439;22;20034;-78
2022/07/01 10:10:28;;;;;;;5.17;3.27;;;;;;;13.80;100.00;96593.78;6275513;22;20019;-79
2022/07/01 10:12:55;;;;;;;5.90;4.17;;;;;;;13.47;100.00;96607.06;6274897;22;20015;-79
2022/07/01 10:15:21;;;;;;;5.10;3.33;;;;;;;13.50;100.00;96592.72;6305137;22;20112;-78
2022/07/01 10:17:49;;;;;;;5.60;3.80;;;;;;;13.60;100.00;96596.00;6296436;22;20021;-78
2022/07/01 10:20:22;;;;;;;10.23;6.00;;;;;;;13.63;100.00;96600.94;6321012;22;20036;-78
2022/07/01 10:22:48;;;;;;;22.27;14.57;;;;;;;13.70;100.00;96609.00;6296010;22;20026;-78
2022/07/01 10:25:49;;;;;;;12.73;7.33;;;;;;;13.67;100.00;96602.25;6321494;22;20005;-78
2022/07/01 10:28:23;;;;;;;5.90;4.20;;;;;;;13.50;100.00;96596.16;6293606;22;20022;-78
2022/07/01 10:31:01;;;;;;;5.27;3.37;;;;;;;13.62;100.00;96597.47;6315734;22;20471;-78
2022/07/01 10:33:35;;;;;;;5.20;3.30;;;;;;;13.68;100.00;96594.16;6291163;22;20037;-78
2022/07/01 10:36:12;;;;;;;5.03;2.90;;;;;;;13.71;100.00;96598.25;6294950;22;20015;-78
2022/07/01 10:39:03;;;;;;;5.00;3.40;;;;;;;13.63;100.00;96601.75;6296609;22;20078;-78
2022/07/01 10:41:34;;;;;;;4.90;3.07;;;;;;;13.59;100.00;96608.38;6272369;22;20047;-79
2022/07/01 10:44:11;;;;;;;5.03;2.97;;;;;;;13.51;100.00;96594.34;6280267;22;20026;-78
2022/07/01 10:46:41;;;;;;;5.53;3.20;;;;;;;13.56;100.00;96592.84;6277634;22;20017;-78
2022/07/01 10:49:15;;;;;;;3.97;2.63;;;;;;;13.49;100.00;96591.06;6274070;22;20010;-77
2022/07/01 10:51:54;;;;;;;5.00;2.80;;;;;;;13.60;100.00;96615.31;6274159;22;20050;-77
2022/07/01 10:57:19;;;;;;;6.30;3.33;;;;;;;13.74;100.00;96620.88;6324285;22;20043;-77
2022/07/01 10:59:54;;;;;;;6.13;3.40;;;;;;;13.60;100.00;96625.88;6347052;22;20006;-78
2022/07/01 11:02:28;;;;;;;9.47;6.43;;;;;;;13.58;100.00;96632.31;6320554;22;20258;-77
2022/07/01 11:04:59;;;;;;;8.05;3.05;;;;;;;13.54;100.00;96639.75;6316544;22;20022;-77
2022/07/01 11:07:27;;;;;;;5.30;3.20;;;;;;;13.37;100.00;96652.16;6292694;22;20021;-78
2022/07/01 11:09:53;;;;;;;5.83;3.23;;;;;;;13.51;100.00;96658.59;6293533;22;20070;-78
2022/07/01 11:12:23;;;;;;;5.23;3.30;;;;;;;13.53;100.00;96635.47;6317741;22;20037;-77
2022/07/01 11:14:49;;;;;;;3.97;2.60;;;;;;;13.51;100.00;96623.41;6320090;22;20014;-78
2022/07/01 11:17:16;;;;;;;5.37;3.07;;;;;;;13.24;100.00;96633.34;6320580;22;20015;-78
2022/07/01 11:19:48;;;;;;;6.37;3.40;;;;;;;13.49;100.00;96628.06;6314474;22;20021;-79
2022/07/01 11:22:34;;;;;;;4.87;2.80;;;;;;;13.27;100.00;96633.00;6298955;22;20018;-79
2022/07/01 11:25:03;;;;;;;6.17;2.90;;;;;;;13.40;100.00;96630.69;6276247;22;20010;-77
2022/07/01 11:27:30;;;;;;;5.93;3.10;;;;;;;13.41;100.00;96650.84;6298984;22;20014;-77
2022/07/01 11:29:59;;;;;;;5.17;3.07;;;;;;;13.38;100.00;96653.84;6273022;22;20026;-77
2022/07/01 11:32:33;;;;;;;4.97;2.83;;;;;;;13.39;100.00;96654.66;6297929;22;20053;-76
2022/07/01 11:35:01;;;;;;;5.40;3.70;;;;;;;13.49;100.00;96643.91;6273310;22;20041;-76
2022/07/01 11:40:15;;;;;;;11.13;7.97;;;;;;;13.66;100.00;96619.91;6295964;22;20013;-77
2022/07/01 11:42:41;;;;;;;18.93;13.70;;;;;;;13.75;100.00;96602.22;6325478;22;20093;-76
2022/07/01 11:45:07;;;;;;;6.13;4.00;;;;;;;13.89;100.00;96614.75;6271166;22;20019;-76
2022/07/01 11:47:33;;;;;;;8.43;3.17;;;;;;;13.85;100.00;96628.47;6278762;22;20076;-76
2022/07/01 11:50:00;;;;;;;4.13;2.70;;;;;;;13.86;100.00;96609.78;6277481;22;20007;-77
2022/07/01 11:52:27;;;;;;;4.63;2.60;;;;;;;13.63;100.00;96627.38;6308543;22;20011;-77
2022/07/01 11:54:59;;;;;;;4.20;2.83;;;;;;;13.56;100.00;96650.19;6334451;22;20002;-77
2022/07/01 11:57:28;;;;;;;4.45;2.15;;;;;;;13.28;100.00;96653.19;6285723;22;20019;-77
2022/07/01 11:59:55;;;;;;;5.23;2.47;;;;;;;13.29;100.00;96654.00;6287041;22;20010;-77
2022/07/01 12:02:24;;;;;;;4.60;2.40;;;;;;;13.46;100.00;96644.25;6313685;22;20021;-77